Seldovia, AK

4:16 PM AKDT on August 20, 2017 (GMT -0800)
Seldovia | | Change Station

Elev 26 ft 59.44 °N, 151.70 °W | Updated 23 minutes ago

Light Rain
Light Rain Mist
52 °F
Feels Like 52 °F
N
7
Wind Variable Wind from North

Today
High -- | Low -- °F
--% Chance of Precip.
Yesterday
High -- | Low -- °F
Precip. -- in
Pressure 29.57 in
Visibility 6.0 miles
Clouds Few 2800 ft
Mostly Cloudy 4000 ft
Overcast 4700 ft
Dew Point 48 °F
Humidity 86%
Rainfall 0.27 in
Snow Depth Not available.
6:36 AM 9:41 PM
Waning Crescent, 1% visible
METAR PASO 202353Z AUTO 35006KT 6SM -RA BR FEW028 BKN040 OVC047 11/09 A2957 RMK AO2 SLP012 P0006 60019 T01110089 10111 20106 57010 TSNO
Pressure 29.57 in
Visibility 6.0 miles
Clouds Few 2800 ft
Mostly Cloudy 4000 ft
Overcast 4700 ft
Dew Point 48 °F
Humidity 86%
Rainfall 0.27 in
Snow Depth Not available.
6:36 AM 9:41 PM
Waning Crescent, 1% visible
METAR PASO 202353Z AUTO 35006KT 6SM -RA BR FEW028 BKN040 OVC047 11/09 A2957 RMK AO2 SLP012 P0006 60019 T01110089 10111 20106 57010 TSNO

Get Severe Weather Alerts

Thanks for signing up!

Be on the lookout for a verification email in your inbox.

You'll start receiving the daily forecast at 6 AM.

×

10-Day Weather Forecast

Almanac

Astronomy

Aug. 20, 2017 Rise Set
Actual Time
Civil Twilight
Nautical Twilight
Astronomical Twilight
Moon
Length of Visible Light
Length of Day
Tomorrow will be .
, % of the Moon is Illuminated

Today's Extremes

State Highs State Lows

Community

WunderPhotos

Category 6

Welcome to Category 6. This is the collective home for Weather Underground's featured writeups by Dr. Jeff Masters (right), Bob Henson (left), Chris Burt, and other regular contributors.

Nearby

Air Quality

  Air Quality AQ Index Pollutant
Not available.

Snow Depth

Station Depth Elevation

Earthquake Activity

City Distance Mag. Time & Date
Minimum magnitude displayed is 2.5.

Coastal Water Temperatures

Place Temperature

Stations

Nearby Weather Stations

Station Location Temp. Windchill Dew Point Humidity Wind Precip. Elev Updated Type
                   

Watches & Warnings

There are currently no watches in effect.